ADDS METAR Data INFO
IDs: Format: Raw Decoded Include TAF

Data at: 1153 UTC 23 Jun 2018

KHRO 231053Z AUTO 36006KT 10SM -RA BKN110 18/18 A2981 RMK AO2 SLP079 P0008 T01830178
KHRO 230953Z AUTO 17008KT 10SM -RA SCT120 19/18 A2984 RMK AO2 RAB51 SLP090 P0000 T01940178
KHRO 230853Z AUTO 29003KT 10SM CLR 19/18 A2981 RMK AO2 SLP078 T01890178 58006
KHRO 230753Z AUTO 32007KT 10SM CLR 19/17 A2983 RMK AO2 SLP085 T01940172
KHRO 230653Z AUTO 31005KT 10SM CLR 19/17 A2983 RMK AO2 SLP087 T01940167
KHRO 230553Z AUTO 00000KT 10SM CLR 19/17 A2983 RMK AO2 SLP085 T01890167 10272 20189 402890183 50001
KHRO 230453Z AUTO 00000KT 10SM CLR 21/17 A2983 RMK AO2 SLP087 T02060167
KHRO 230353Z AUTO 23003KT 10SM BKN046 19/17 A2983 RMK AO2 SLP089 T01940172
KHRO 230253Z AUTO 24004KT 10SM CLR 21/17 A2982 RMK AO2 SLP085 T02110172 53015
KHRO 230153Z AUTO 00000KT 10SM CLR 22/17 A2979 RMK AO2 SLP073 T02220172
KHRO 230053Z AUTO 00000KT 10SM CLR 25/18 A2978 RMK AO2 SLP070 T02500178
KHRO 222353Z AUTO 32003KT 10SM CLR 27/16 A2978 RMK AO2 SLP069 T02720161 10289 20267 58013
KHRO 222253Z AUTO 26008KT 10SM CLR 28/16 A2979 RMK AO2 SLP073 T02780156
KHRO 222153Z AUTO 32008KT 10SM CLR 28/16 A2981 RMK AO2 SLP078 T02830156
KHRO 222053Z AUTO 33011G18KT 10SM SCT043 28/17 A2982 RMK AO2 SLP081 T02830172 56012
KHRO 221953Z AUTO 30008KT 10SM SCT046 BKN060 28/16 A2983 RMK AO2 SLP085 T02830161
KHRO 221853Z AUTO 33010KT 10SM FEW046 SCT060 28/17 A2984 RMK AO2 SLP088 T02780167
KHRO 221753Z AUTO 31009G15KT 10SM SCT042 BKN050 28/17 A2985 RMK AO2 SLP093 T02780167 10278 20189 55000
KHRO 221653Z AUTO 31008G15KT 10SM SCT038 26/16 A2985 RMK AO2 SLP093 T02610161
KHRO 221553Z AUTO 30009KT 10SM FEW029 25/16 A2985 RMK AO2 SLP093 T02500161
KHRO 221453Z AUTO 28008KT 260V330 10SM CLR 23/16 A2985 RMK AO2 SLP095 T02330161 50001
KHRO 221353Z AUTO 31009G16KT 10SM FEW018 22/17 A2986 RMK AO2 SLP096 T02170167
KHRO 221325Z AUTO 29009KT 10SM FEW017 21/17 A2986 RMK AO2 T02110167
KHRO 221253Z AUTO 32009KT 10SM OVC019 21/17 A2986 RMK AO2 SLP096 T02060167 $
KHRO 221153Z AUTO 29006KT 10SM OVC016 19/16 A2985 RMK AO2 SLP095 T01890161 10222 20183 53015 $
KHRO 221128Z AUTO 29006KT 10SM BKN017 19/16 A2984 RMK AO2 T01890161 $
KHRO 221053Z AUTO 30006KT 10SM FEW024 19/16 A2983 RMK AO2 SLP087 T01890156 $
KHRO 220953Z AUTO 28005KT 10SM CLR 19/16 A2982 RMK AO2 SLP081 T01890156 $
KHRO 220853Z AUTO 30007KT 10SM CLR 19/16 A2981 RMK AO2 SLP078 T01940156 56003 $
KHRO 220753Z AUTO 30007KT 10SM OVC080 21/15 A2981 RMK AO2 SLP077 T02110150 $
KHRO 220653Z AUTO 29005KT 10SM OVC085 22/14 A2980 RMK AO2 SLP076 T02220144 $
KHRO 220553Z AUTO 26004KT 10SM FEW085 22/15 A2981 RMK AO2 SLP080 T02170150 10272 20217 402940183 58000 $
KHRO 220453Z AUTO 26004KT 10SM BKN095 22/16 A2983 RMK AO2 SLP083 T02170156 $
KHRO 220353Z AUTO 26005KT 10SM CLR 23/15 A2982 RMK AO2 SLP083 T02280150 $
KHRO 220253Z AUTO 25004KT 10SM FEW065 FEW080 SCT090 23/15 A2982 RMK AO2 SLP081 T02330150 53004 $
KHRO 220153Z AUTO 22004KT 10SM FEW070 BKN100 24/15 A2980 RMK AO2 SLP075 T02440150 $
KHRO 220053Z AUTO 25009KT 10SM FEW002 FEW065 SCT095 26/14 A2980 RMK AO2 SLP076 T02560144 $
KHRO 220033Z AUTO 23008KT 10SM FEW002 FEW065 BKN090 27/14 A2980 RMK AO2 T02670144 $